sensor_id;sensor_type;location;lat;lon;timestamp;P1;durP1;ratioP1;P2;durP2;ratioP2
34767;SDS011;21755;43.608;1.236;2023-05-07T00:01:56;8.82;;;4.40;;
34767;SDS011;21755;43.608;1.236;2023-05-07T00:04:22;9.65;;;3.53;;
34767;SDS011;21755;43.608;1.236;2023-05-07T00:06:48;11.82;;;4.82;;
34767;SDS011;21755;43.608;1.236;2023-05-07T00:09:14;10.45;;;4.57;;
34767;SDS011;21755;43.608;1.236;2023-05-07T00:11:39;9.50;;;4.20;;
34767;SDS011;21755;43.608;1.236;2023-05-07T00:14:05;6.05;;;3.70;;
34767;SDS011;21755;43.608;1.236;2023-05-07T00:16:31;10.60;;;3.97;;
34767;SDS011;21755;43.608;1.236;2023-05-07T00:18:57;11.40;;;4.47;;
34767;SDS011;21755;43.608;1.236;2023-05-07T00:21:23;13.35;;;4.65;;
34767;SDS011;21755;43.608;1.236;2023-05-07T00:23:52;10.60;;;4.03;;
34767;SDS011;21755;43.608;1.236;2023-05-07T00:26:18;8.75;;;4.20;;
34767;SDS011;21755;43.608;1.236;2023-05-07T00:28:44;10.50;;;4.40;;
34767;SDS011;21755;43.608;1.236;2023-05-07T00:31:10;12.60;;;4.05;;
34767;SDS011;21755;43.608;1.236;2023-05-07T00:33:36;13.75;;;4.22;;
34767;SDS011;21755;43.608;1.236;2023-05-07T00:36:02;12.30;;;4.47;;
34767;SDS011;21755;43.608;1.236;2023-05-07T00:38:28;9.93;;;4.25;;
34767;SDS011;21755;43.608;1.236;2023-05-07T00:40:54;8.75;;;3.38;;
34767;SDS011;21755;43.608;1.236;2023-05-07T00:43:20;8.18;;;4.10;;
34767;SDS011;21755;43.608;1.236;2023-05-07T00:45:46;8.30;;;4.47;;
34767;SDS011;21755;43.608;1.236;2023-05-07T00:48:13;14.50;;;4.68;;
34767;SDS011;21755;43.608;1.236;2023-05-07T00:50:39;14.25;;;4.72;;
34767;SDS011;21755;43.608;1.236;2023-05-07T00:53:05;11.10;;;4.18;;
34767;SDS011;21755;43.608;1.236;2023-05-07T00:55:32;13.18;;;3.65;;
34767;SDS011;21755;43.608;1.236;2023-05-07T00:57:58;14.82;;;4.65;;
34767;SDS011;21755;43.608;1.236;2023-05-07T01:00:24;15.25;;;4.05;;
34767;SDS011;21755;43.608;1.236;2023-05-07T01:02:50;17.45;;;4.03;;
34767;SDS011;21755;43.608;1.236;2023-05-07T01:05:17;14.13;;;3.97;;
34767;SDS011;21755;43.608;1.236;2023-05-07T01:07:46;12.35;;;3.97;;
34767;SDS011;21755;43.608;1.236;2023-05-07T01:10:13;12.65;;;3.38;;
34767;SDS011;21755;43.608;1.236;2023-05-07T01:12:40;14.00;;;3.55;;
34767;SDS011;21755;43.608;1.236;2023-05-07T01:15:07;11.88;;;3.13;;
34767;SDS011;21755;43.608;1.236;2023-05-07T01:17:34;10.23;;;3.33;;
34767;SDS011;21755;43.608;1.236;2023-05-07T01:20:01;13.57;;;3.17;;
34767;SDS011;21755;43.608;1.236;2023-05-07T01:22:31;9.88;;;3.30;;
34767;SDS011;21755;43.608;1.236;2023-05-07T01:25:04;12.63;;;3.50;;
34767;SDS011;21755;43.608;1.236;2023-05-07T01:27:31;13.10;;;3.58;;
34767;SDS011;21755;43.608;1.236;2023-05-07T01:29:58;12.40;;;3.15;;
34767;SDS011;21755;43.608;1.236;2023-05-07T01:32:43;13.45;;;3.55;;
34767;SDS011;21755;43.608;1.236;2023-05-07T01:35:16;11.35;;;3.80;;
34767;SDS011;21755;43.608;1.236;2023-05-07T01:37:46;12.07;;;3.53;;
34767;SDS011;21755;43.608;1.236;2023-05-07T01:40:12;9.70;;;3.47;;
34767;SDS011;21755;43.608;1.236;2023-05-07T01:42:39;11.65;;;3.38;;
34767;SDS011;21755;43.608;1.236;2023-05-07T01:45:07;12.05;;;3.40;;
34767;SDS011;21755;43.608;1.236;2023-05-07T01:47:33;10.10;;;2.88;;
34767;SDS011;21755;43.608;1.236;2023-05-07T01:49:59;9.10;;;3.10;;
34767;SDS011;21755;43.608;1.236;2023-05-07T01:52:27;14.68;;;3.83;;
34767;SDS011;21755;43.608;1.236;2023-05-07T01:54:53;10.15;;;3.40;;
34767;SDS011;21755;43.608;1.236;2023-05-07T01:57:19;13.77;;;3.58;;
34767;SDS011;21755;43.608;1.236;2023-05-07T01:59:45;13.60;;;3.13;;
34767;SDS011;21755;43.608;1.236;2023-05-07T02:02:11;11.82;;;3.42;;
34767;SDS011;21755;43.608;1.236;2023-05-07T02:04:36;14.10;;;3.58;;
34767;SDS011;21755;43.608;1.236;2023-05-07T02:07:02;16.55;;;3.72;;
34767;SDS011;21755;43.608;1.236;2023-05-07T02:09:28;14.82;;;3.40;;
34767;SDS011;21755;43.608;1.236;2023-05-07T02:11:54;14.07;;;3.08;;
34767;SDS011;21755;43.608;1.236;2023-05-07T02:14:20;15.60;;;3.95;;
34767;SDS011;21755;43.608;1.236;2023-05-07T02:16:46;14.43;;;3.45;;
34767;SDS011;21755;43.608;1.236;2023-05-07T02:19:12;10.70;;;2.92;;
34767;SDS011;21755;43.608;1.236;2023-05-07T02:21:37;11.90;;;3.45;;
34767;SDS011;21755;43.608;1.236;2023-05-07T02:24:03;17.80;;;3.90;;
34767;SDS011;21755;43.608;1.236;2023-05-07T02:26:29;15.55;;;3.28;;
34767;SDS011;21755;43.608;1.236;2023-05-07T02:28:55;15.10;;;3.75;;
34767;SDS011;21755;43.608;1.236;2023-05-07T02:31:21;8.45;;;2.92;;
34767;SDS011;21755;43.608;1.236;2023-05-07T02:33:47;9.15;;;3.33;;
34767;SDS011;21755;43.608;1.236;2023-05-07T02:36:13;8.70;;;3.28;;
34767;SDS011;21755;43.608;1.236;2023-05-07T02:38:39;17.63;;;4.15;;
34767;SDS011;21755;43.608;1.236;2023-05-07T02:41:05;11.57;;;3.90;;
34767;SDS011;21755;43.608;1.236;2023-05-07T02:43:30;16.25;;;3.55;;
34767;SDS011;21755;43.608;1.236;2023-05-07T02:48:32;16.20;;;3.53;;
34767;SDS011;21755;43.608;1.236;2023-05-07T02:50:58;14.30;;;4.03;;
34767;SDS011;21755;43.608;1.236;2023-05-07T02:53:27;15.80;;;4.22;;
34767;SDS011;21755;43.608;1.236;2023-05-07T02:55:57;13.18;;;3.63;;
34767;SDS011;21755;43.608;1.236;2023-05-07T02:58:25;16.80;;;3.72;;
34767;SDS011;21755;43.608;1.236;2023-05-07T03:00:51;12.90;;;3.83;;
34767;SDS011;21755;43.608;1.236;2023-05-07T03:03:17;21.20;;;4.82;;
34767;SDS011;21755;43.608;1.236;2023-05-07T03:05:43;14.25;;;3.58;;
34767;SDS011;21755;43.608;1.236;2023-05-07T03:08:09;22.15;;;4.10;;
34767;SDS011;21755;43.608;1.236;2023-05-07T03:10:36;13.90;;;4.10;;
34767;SDS011;21755;43.608;1.236;2023-05-07T03:13:02;13.48;;;3.67;;
34767;SDS011;21755;43.608;1.236;2023-05-07T03:15:28;17.23;;;4.10;;
34767;SDS011;21755;43.608;1.236;2023-05-07T03:17:54;11.13;;;3.85;;
34767;SDS011;21755;43.608;1.236;2023-05-07T03:20:20;11.45;;;3.60;;
34767;SDS011;21755;43.608;1.236;2023-05-07T03:22:46;13.48;;;4.05;;
34767;SDS011;21755;43.608;1.236;2023-05-07T03:25:12;16.60;;;3.75;;
34767;SDS011;21755;43.608;1.236;2023-05-07T03:27:39;14.60;;;3.88;;
34767;SDS011;21755;43.608;1.236;2023-05-07T03:30:07;13.75;;;4.03;;
34767;SDS011;21755;43.608;1.236;2023-05-07T03:32:34;11.18;;;3.50;;
34767;SDS011;21755;43.608;1.236;2023-05-07T03:35:00;14.10;;;3.60;;
34767;SDS011;21755;43.608;1.236;2023-05-07T03:37:27;18.40;;;3.95;;
34767;SDS011;21755;43.608;1.236;2023-05-07T03:39:53;18.30;;;3.63;;
34767;SDS011;21755;43.608;1.236;2023-05-07T03:42:19;17.05;;;4.00;;
34767;SDS011;21755;43.608;1.236;2023-05-07T03:44:45;15.73;;;3.80;;
34767;SDS011;21755;43.608;1.236;2023-05-07T03:47:11;15.80;;;4.13;;
34767;SDS011;21755;43.608;1.236;2023-05-07T03:49:38;9.10;;;3.58;;
34767;SDS011;21755;43.608;1.236;2023-05-07T03:52:05;11.27;;;3.53;;
34767;SDS011;21755;43.608;1.236;2023-05-07T03:54:31;14.05;;;3.63;;
34767;SDS011;21755;43.608;1.236;2023-05-07T03:56:57;13.18;;;3.40;;
34767;SDS011;21755;43.608;1.236;2023-05-07T03:59:23;17.00;;;3.42;;
34767;SDS011;21755;43.608;1.236;2023-05-07T04:01:49;10.93;;;3.28;;
34767;SDS011;21755;43.608;1.236;2023-05-07T04:04:15;19.10;;;4.80;;
34767;SDS011;21755;43.608;1.236;2023-05-07T04:06:41;10.48;;;3.72;;
34767;SDS011;21755;43.608;1.236;2023-05-07T04:09:07;11.85;;;3.10;;
34767;SDS011;21755;43.608;1.236;2023-05-07T04:11:33;17.83;;;3.63;;
34767;SDS011;21755;43.608;1.236;2023-05-07T04:14:00;16.42;;;3.20;;
34767;SDS011;21755;43.608;1.236;2023-05-07T04:16:26;18.02;;;3.55;;
34767;SDS011;21755;43.608;1.236;2023-05-07T04:18:52;12.88;;;3.38;;
34767;SDS011;21755;43.608;1.236;2023-05-07T04:21:19;9.85;;;3.05;;
34767;SDS011;21755;43.608;1.236;2023-05-07T04:23:46;11.57;;;3.17;;
34767;SDS011;21755;43.608;1.236;2023-05-07T04:26:13;13.43;;;3.30;;
34767;SDS011;21755;43.608;1.236;2023-05-07T04:28:39;9.88;;;3.67;;
34767;SDS011;21755;43.608;1.236;2023-05-07T04:31:05;19.20;;;3.55;;
34767;SDS011;21755;43.608;1.236;2023-05-07T04:33:31;11.30;;;3.40;;
34767;SDS011;21755;43.608;1.236;2023-05-07T04:35:58;16.98;;;4.68;;
34767;SDS011;21755;43.608;1.236;2023-05-07T04:38:31;12.63;;;4.35;;
34767;SDS011;21755;43.608;1.236;2023-05-07T04:40:58;14.85;;;3.45;;
34767;SDS011;21755;43.608;1.236;2023-05-07T04:43:33;10.13;;;3.85;;
34767;SDS011;21755;43.608;1.236;2023-05-07T04:46:00;16.25;;;4.22;;
34767;SDS011;21755;43.608;1.236;2023-05-07T04:48:26;16.73;;;4.22;;
34767;SDS011;21755;43.608;1.236;2023-05-07T04:50:52;16.98;;;3.72;;
34767;SDS011;21755;43.608;1.236;2023-05-07T04:53:18;15.93;;;4.13;;
34767;SDS011;21755;43.608;1.236;2023-05-07T04:55:44;13.43;;;3.83;;
34767;SDS011;21755;43.608;1.236;2023-05-07T04:58:10;18.90;;;3.53;;
34767;SDS011;21755;43.608;1.236;2023-05-07T05:00:37;19.40;;;3.97;;
34767;SDS011;21755;43.608;1.236;2023-05-07T05:03:04;14.65;;;3.75;;
34767;SDS011;21755;43.608;1.236;2023-05-07T05:05:33;17.85;;;3.88;;
34767;SDS011;21755;43.608;1.236;2023-05-07T05:07:59;25.73;;;3.88;;
34767;SDS011;21755;43.608;1.236;2023-05-07T05:10:25;15.50;;;4.45;;
34767;SDS011;21755;43.608;1.236;2023-05-07T05:12:51;19.17;;;4.15;;
34767;SDS011;21755;43.608;1.236;2023-05-07T05:15:17;11.50;;;3.88;;
34767;SDS011;21755;43.608;1.236;2023-05-07T05:17:43;20.33;;;4.60;;
34767;SDS011;21755;43.608;1.236;2023-05-07T05:20:09;13.60;;;4.32;;
34767;SDS011;21755;43.608;1.236;2023-05-07T05:22:36;18.98;;;4.53;;
34767;SDS011;21755;43.608;1.236;2023-05-07T05:25:03;19.00;;;4.07;;
34767;SDS011;21755;43.608;1.236;2023-05-07T05:27:29;15.57;;;4.80;;
34767;SDS011;21755;43.608;1.236;2023-05-07T05:29:55;10.80;;;3.55;;
34767;SDS011;21755;43.608;1.236;2023-05-07T05:32:21;18.45;;;3.97;;
34767;SDS011;21755;43.608;1.236;2023-05-07T05:34:47;25.13;;;3.92;;
34767;SDS011;21755;43.608;1.236;2023-05-07T05:37:13;15.80;;;4.38;;
34767;SDS011;21755;43.608;1.236;2023-05-07T05:39:38;13.50;;;4.57;;
34767;SDS011;21755;43.608;1.236;2023-05-07T05:42:04;10.35;;;3.28;;
34767;SDS011;21755;43.608;1.236;2023-05-07T05:44:30;17.33;;;4.35;;
34767;SDS011;21755;43.608;1.236;2023-05-07T05:46:56;17.52;;;4.07;;
34767;SDS011;21755;43.608;1.236;2023-05-07T05:49:24;13.45;;;3.60;;
34767;SDS011;21755;43.608;1.236;2023-05-07T05:51:50;16.73;;;4.53;;
34767;SDS011;21755;43.608;1.236;2023-05-07T05:54:16;15.90;;;3.90;;
34767;SDS011;21755;43.608;1.236;2023-05-07T05:56:42;13.15;;;4.00;;
34767;SDS011;21755;43.608;1.236;2023-05-07T05:59:08;18.88;;;3.67;;
34767;SDS011;21755;43.608;1.236;2023-05-07T06:01:34;17.95;;;3.97;;
34767;SDS011;21755;43.608;1.236;2023-05-07T06:04:00;15.50;;;4.57;;
34767;SDS011;21755;43.608;1.236;2023-05-07T06:06:26;21.40;;;4.60;;
34767;SDS011;21755;43.608;1.236;2023-05-07T06:08:52;18.10;;;4.63;;
34767;SDS011;21755;43.608;1.236;2023-05-07T06:11:18;23.55;;;4.88;;
34767;SDS011;21755;43.608;1.236;2023-05-07T06:13:44;15.18;;;4.38;;
34767;SDS011;21755;43.608;1.236;2023-05-07T06:16:10;12.77;;;3.45;;
34767;SDS011;21755;43.608;1.236;2023-05-07T06:18:35;21.27;;;4.80;;
34767;SDS011;21755;43.608;1.236;2023-05-07T06:21:01;22.52;;;4.25;;
34767;SDS011;21755;43.608;1.236;2023-05-07T06:23:27;16.42;;;4.03;;
34767;SDS011;21755;43.608;1.236;2023-05-07T06:25:53;17.90;;;4.65;;
34767;SDS011;21755;43.608;1.236;2023-05-07T06:28:19;16.30;;;4.10;;
34767;SDS011;21755;43.608;1.236;2023-05-07T06:30:45;14.07;;;3.42;;
34767;SDS011;21755;43.608;1.236;2023-05-07T06:33:11;13.02;;;3.72;;
34767;SDS011;21755;43.608;1.236;2023-05-07T06:35:37;13.65;;;4.32;;
34767;SDS011;21755;43.608;1.236;2023-05-07T06:38:03;13.27;;;3.83;;
34767;SDS011;21755;43.608;1.236;2023-05-07T06:40:29;15.13;;;3.63;;
34767;SDS011;21755;43.608;1.236;2023-05-07T06:42:54;12.93;;;4.10;;
34767;SDS011;21755;43.608;1.236;2023-05-07T06:45:20;11.77;;;3.97;;
34767;SDS011;21755;43.608;1.236;2023-05-07T06:47:46;15.18;;;4.20;;
34767;SDS011;21755;43.608;1.236;2023-05-07T06:50:12;16.92;;;3.53;;
34767;SDS011;21755;43.608;1.236;2023-05-07T06:52:38;9.73;;;4.03;;
34767;SDS011;21755;43.608;1.236;2023-05-07T06:55:04;14.25;;;3.15;;
34767;SDS011;21755;43.608;1.236;2023-05-07T06:57:30;19.35;;;4.78;;
34767;SDS011;21755;43.608;1.236;2023-05-07T06:59:56;19.38;;;3.97;;
34767;SDS011;21755;43.608;1.236;2023-05-07T07:02:22;14.80;;;4.13;;
34767;SDS011;21755;43.608;1.236;2023-05-07T07:04:48;14.65;;;3.67;;
34767;SDS011;21755;43.608;1.236;2023-05-07T07:07:14;14.38;;;3.90;;
34767;SDS011;21755;43.608;1.236;2023-05-07T07:09:39;20.83;;;4.30;;
34767;SDS011;21755;43.608;1.236;2023-05-07T07:12:05;14.52;;;3.60;;
34767;SDS011;21755;43.608;1.236;2023-05-07T07:14:31;24.75;;;5.18;;
34767;SDS011;21755;43.608;1.236;2023-05-07T07:16:57;18.45;;;3.95;;
34767;SDS011;21755;43.608;1.236;2023-05-07T07:19:23;12.32;;;4.05;;
34767;SDS011;21755;43.608;1.236;2023-05-07T07:21:49;12.60;;;3.53;;
34767;SDS011;21755;43.608;1.236;2023-05-07T07:24:15;22.02;;;4.85;;
34767;SDS011;21755;43.608;1.236;2023-05-07T07:26:44;15.00;;;4.20;;
34767;SDS011;21755;43.608;1.236;2023-05-07T07:29:10;12.10;;;4.07;;
34767;SDS011;21755;43.608;1.236;2023-05-07T07:31:36;15.10;;;4.45;;
34767;SDS011;21755;43.608;1.236;2023-05-07T07:34:02;19.08;;;3.85;;
34767;SDS011;21755;43.608;1.236;2023-05-07T07:36:27;16.30;;;3.88;;
34767;SDS011;21755;43.608;1.236;2023-05-07T07:38:53;16.05;;;3.72;;
34767;SDS011;21755;43.608;1.236;2023-05-07T07:41:19;16.60;;;4.63;;
34767;SDS011;21755;43.608;1.236;2023-05-07T07:43:46;10.23;;;3.75;;
34767;SDS011;21755;43.608;1.236;2023-05-07T07:46:12;13.35;;;3.85;;
34767;SDS011;21755;43.608;1.236;2023-05-07T07:48:38;18.92;;;4.72;;
34767;SDS011;21755;43.608;1.236;2023-05-07T07:51:04;15.43;;;4.32;;
34767;SDS011;21755;43.608;1.236;2023-05-07T07:53:30;19.50;;;4.80;;
34767;SDS011;21755;43.608;1.236;2023-05-07T07:55:55;16.55;;;4.50;;
34767;SDS011;21755;43.608;1.236;2023-05-07T07:58:21;9.80;;;3.60;;
34767;SDS011;21755;43.608;1.236;2023-05-07T08:00:48;9.57;;;3.53;;
34767;SDS011;21755;43.608;1.236;2023-05-07T08:03:14;17.70;;;4.15;;
34767;SDS011;21755;43.608;1.236;2023-05-07T08:05:41;21.13;;;3.60;;
34767;SDS011;21755;43.608;1.236;2023-05-07T08:08:08;13.23;;;3.58;;
34767;SDS011;21755;43.608;1.236;2023-05-07T08:10:34;13.25;;;4.20;;
34767;SDS011;21755;43.608;1.236;2023-05-07T08:13:03;10.65;;;3.78;;
34767;SDS011;21755;43.608;1.236;2023-05-07T08:15:30;15.18;;;4.25;;
34767;SDS011;21755;43.608;1.236;2023-05-07T08:17:56;12.25;;;4.38;;
34767;SDS011;21755;43.608;1.236;2023-05-07T08:20:23;15.20;;;3.92;;
34767;SDS011;21755;43.608;1.236;2023-05-07T08:22:49;13.90;;;3.92;;
34767;SDS011;21755;43.608;1.236;2023-05-07T08:25:14;10.68;;;3.83;;
34767;SDS011;21755;43.608;1.236;2023-05-07T08:27:40;11.60;;;4.22;;
34767;SDS011;21755;43.608;1.236;2023-05-07T08:30:06;15.13;;;3.80;;
34767;SDS011;21755;43.608;1.236;2023-05-07T08:32:33;14.07;;;3.90;;
34767;SDS011;21755;43.608;1.236;2023-05-07T08:34:59;16.38;;;3.85;;
34767;SDS011;21755;43.608;1.236;2023-05-07T08:37:25;16.30;;;4.22;;
34767;SDS011;21755;43.608;1.236;2023-05-07T08:39:51;15.60;;;3.80;;
34767;SDS011;21755;43.608;1.236;2023-05-07T08:42:17;15.48;;;3.80;;
34767;SDS011;21755;43.608;1.236;2023-05-07T08:44:44;8.65;;;3.42;;
34767;SDS011;21755;43.608;1.236;2023-05-07T08:47:14;12.68;;;3.60;;
34767;SDS011;21755;43.608;1.236;2023-05-07T08:49:40;17.08;;;3.75;;
34767;SDS011;21755;43.608;1.236;2023-05-07T08:52:06;12.82;;;3.47;;
34767;SDS011;21755;43.608;1.236;2023-05-07T08:54:32;9.90;;;3.30;;
34767;SDS011;21755;43.608;1.236;2023-05-07T08:56:58;9.65;;;3.60;;
34767;SDS011;21755;43.608;1.236;2023-05-07T08:59:25;17.38;;;3.75;;
34767;SDS011;21755;43.608;1.236;2023-05-07T09:01:51;14.68;;;3.47;;
34767;SDS011;21755;43.608;1.236;2023-05-07T09:04:17;15.70;;;4.57;;
34767;SDS011;21755;43.608;1.236;2023-05-07T09:06:43;10.50;;;3.58;;
34767;SDS011;21755;43.608;1.236;2023-05-07T09:09:08;14.55;;;3.75;;
34767;SDS011;21755;43.608;1.236;2023-05-07T09:11:34;11.82;;;3.67;;
34767;SDS011;21755;43.608;1.236;2023-05-07T09:14:00;12.93;;;3.50;;
34767;SDS011;21755;43.608;1.236;2023-05-07T09:16:29;10.95;;;3.08;;
34767;SDS011;21755;43.608;1.236;2023-05-07T09:18:56;12.75;;;3.20;;
34767;SDS011;21755;43.608;1.236;2023-05-07T09:21:23;17.15;;;3.72;;
34767;SDS011;21755;43.608;1.236;2023-05-07T09:23:53;9.70;;;3.92;;
34767;SDS011;21755;43.608;1.236;2023-05-07T09:26:23;17.42;;;3.75;;
34767;SDS011;21755;43.608;1.236;2023-05-07T09:28:50;11.25;;;3.25;;
34767;SDS011;21755;43.608;1.236;2023-05-07T09:31:17;11.95;;;3.58;;
34767;SDS011;21755;43.608;1.236;2023-05-07T09:33:43;16.48;;;3.63;;
34767;SDS011;21755;43.608;1.236;2023-05-07T09:36:09;11.65;;;3.55;;
34767;SDS011;21755;43.608;1.236;2023-05-07T09:38:36;14.82;;;3.58;;
34767;SDS011;21755;43.608;1.236;2023-05-07T09:43:33;15.50;;;3.63;;
34767;SDS011;21755;43.608;1.236;2023-05-07T09:46:02;16.63;;;3.85;;
34767;SDS011;21755;43.608;1.236;2023-05-07T09:48:35;19.95;;;3.50;;
34767;SDS011;21755;43.608;1.236;2023-05-07T09:51:06;13.27;;;3.70;;
34767;SDS011;21755;43.608;1.236;2023-05-07T09:53:47;14.95;;;3.78;;
34767;SDS011;21755;43.608;1.236;2023-05-07T09:56:15;9.25;;;3.80;;
34767;SDS011;21755;43.608;1.236;2023-05-07T09:58:43;18.15;;;3.88;;
34767;SDS011;21755;43.608;1.236;2023-05-07T10:01:10;16.25;;;3.00;;
34767;SDS011;21755;43.608;1.236;2023-05-07T10:03:37;17.55;;;3.70;;
34767;SDS011;21755;43.608;1.236;2023-05-07T10:06:09;11.45;;;3.47;;
34767;SDS011;21755;43.608;1.236;2023-05-07T10:08:36;11.45;;;4.53;;
34767;SDS011;21755;43.608;1.236;2023-05-07T10:11:05;15.02;;;4.43;;
34767;SDS011;21755;43.608;1.236;2023-05-07T10:13:32;14.27;;;3.78;;
34767;SDS011;21755;43.608;1.236;2023-05-07T10:16:03;19.42;;;4.43;;
34767;SDS011;21755;43.608;1.236;2023-05-07T10:18:30;20.20;;;3.72;;
34767;SDS011;21755;43.608;1.236;2023-05-07T10:21:07;16.48;;;3.65;;
34767;SDS011;21755;43.608;1.236;2023-05-07T10:23:45;15.55;;;4.20;;
34767;SDS011;21755;43.608;1.236;2023-05-07T10:28:41;15.75;;;3.38;;
34767;SDS011;21755;43.608;1.236;2023-05-07T10:31:18;16.33;;;3.60;;
34767;SDS011;21755;43.608;1.236;2023-05-07T10:33:48;16.58;;;4.80;;
34767;SDS011;21755;43.608;1.236;2023-05-07T10:36:18;16.52;;;3.75;;
34767;SDS011;21755;43.608;1.236;2023-05-07T10:38:45;10.57;;;3.65;;
34767;SDS011;21755;43.608;1.236;2023-05-07T10:41:11;12.90;;;3.53;;
34767;SDS011;21755;43.608;1.236;2023-05-07T10:43:38;17.20;;;6.65;;
34767;SDS011;21755;43.608;1.236;2023-05-07T10:46:39;15.95;;;3.72;;
34767;SDS011;21755;43.608;1.236;2023-05-07T10:51:27;7.90;;;3.35;;
34767;SDS011;21755;43.608;1.236;2023-05-07T10:56:38;13.32;;;3.90;;
34767;SDS011;21755;43.608;1.236;2023-05-07T11:02:02;13.00;;;3.20;;
34767;SDS011;21755;43.608;1.236;2023-05-07T11:04:29;18.05;;;4.30;;
34767;SDS011;21755;43.608;1.236;2023-05-07T11:15:05;21.25;;;3.45;;
34767;SDS011;21755;43.608;1.236;2023-05-07T11:17:32;14.88;;;3.75;;
34767;SDS011;21755;43.608;1.236;2023-05-07T11:20:02;16.10;;;3.75;;
34767;SDS011;21755;43.608;1.236;2023-05-07T11:24:59;11.38;;;3.00;;
34767;SDS011;21755;43.608;1.236;2023-05-07T11:27:26;16.77;;;3.25;;
34767;SDS011;21755;43.608;1.236;2023-05-07T11:29:52;11.88;;;3.20;;
34767;SDS011;21755;43.608;1.236;2023-05-07T11:32:24;10.85;;;2.92;;
34767;SDS011;21755;43.608;1.236;2023-05-07T11:34:55;15.95;;;2.90;;
34767;SDS011;21755;43.608;1.236;2023-05-07T11:37:23;9.27;;;2.55;;
34767;SDS011;21755;43.608;1.236;2023-05-07T11:39:50;11.45;;;2.75;;
34767;SDS011;21755;43.608;1.236;2023-05-07T11:42:30;7.88;;;2.60;;
34767;SDS011;21755;43.608;1.236;2023-05-07T11:44:58;13.70;;;2.90;;
34767;SDS011;21755;43.608;1.236;2023-05-07T11:47:24;10.68;;;2.67;;
34767;SDS011;21755;43.608;1.236;2023-05-07T11:49:51;11.95;;;2.42;;
34767;SDS011;21755;43.608;1.236;2023-05-07T11:52:19;10.00;;;2.88;;
34767;SDS011;21755;43.608;1.236;2023-05-07T11:54:49;10.75;;;2.55;;
34767;SDS011;21755;43.608;1.236;2023-05-07T11:57:15;11.48;;;3.13;;
34767;SDS011;21755;43.608;1.236;2023-05-07T11:59:41;6.75;;;2.42;;
34767;SDS011;21755;43.608;1.236;2023-05-07T12:02:09;11.57;;;2.45;;
34767;SDS011;21755;43.608;1.236;2023-05-07T12:04:35;12.13;;;2.67;;
34767;SDS011;21755;43.608;1.236;2023-05-07T12:07:03;8.52;;;2.30;;
34767;SDS011;21755;43.608;1.236;2023-05-07T12:09:29;13.00;;;2.50;;
34767;SDS011;21755;43.608;1.236;2023-05-07T12:12:03;11.10;;;3.05;;
34767;SDS011;21755;43.608;1.236;2023-05-07T12:14:29;7.20;;;1.85;;
34767;SDS011;21755;43.608;1.236;2023-05-07T12:16:55;9.70;;;2.45;;
34767;SDS011;21755;43.608;1.236;2023-05-07T12:19:22;6.63;;;2.30;;
34767;SDS011;21755;43.608;1.236;2023-05-07T12:21:47;16.48;;;2.72;;
34767;SDS011;21755;43.608;1.236;2023-05-07T12:24:14;8.70;;;2.75;;
34767;SDS011;21755;43.608;1.236;2023-05-07T12:26:40;11.35;;;2.65;;
34767;SDS011;21755;43.608;1.236;2023-05-07T12:29:06;7.53;;;2.05;;
34767;SDS011;21755;43.608;1.236;2023-05-07T12:31:32;15.27;;;3.03;;
34767;SDS011;21755;43.608;1.236;2023-05-07T12:33:58;9.43;;;2.78;;
34767;SDS011;21755;43.608;1.236;2023-05-07T12:36:24;9.63;;;2.25;;
34767;SDS011;21755;43.608;1.236;2023-05-07T12:38:51;7.68;;;2.40;;
34767;SDS011;21755;43.608;1.236;2023-05-07T12:41:16;8.90;;;2.13;;
34767;SDS011;21755;43.608;1.236;2023-05-07T12:43:43;4.82;;;1.90;;
34767;SDS011;21755;43.608;1.236;2023-05-07T12:46:10;12.35;;;2.30;;
34767;SDS011;21755;43.608;1.236;2023-05-07T12:48:44;6.13;;;2.63;;
34767;SDS011;21755;43.608;1.236;2023-05-07T12:51:11;8.70;;;2.40;;
34767;SDS011;21755;43.608;1.236;2023-05-07T12:53:42;11.20;;;2.20;;
34767;SDS011;21755;43.608;1.236;2023-05-07T12:56:08;8.63;;;1.92;;
34767;SDS011;21755;43.608;1.236;2023-05-07T12:58:34;8.50;;;1.98;;
34767;SDS011;21755;43.608;1.236;2023-05-07T13:01:06;8.55;;;2.33;;
34767;SDS011;21755;43.608;1.236;2023-05-07T13:03:35;10.85;;;2.42;;
34767;SDS011;21755;43.608;1.236;2023-05-07T13:06:03;10.05;;;2.42;;
34767;SDS011;21755;43.608;1.236;2023-05-07T13:11:10;8.65;;;2.22;;
34767;SDS011;21755;43.608;1.236;2023-05-07T13:13:37;10.85;;;2.30;;
34767;SDS011;21755;43.608;1.236;2023-05-07T13:16:05;8.40;;;2.13;;
34767;SDS011;21755;43.608;1.236;2023-05-07T13:18:32;11.13;;;1.90;;
34767;SDS011;21755;43.608;1.236;2023-05-07T13:20:59;6.50;;;2.33;;
34767;SDS011;21755;43.608;1.236;2023-05-07T13:23:26;8.52;;;2.28;;
34767;SDS011;21755;43.608;1.236;2023-05-07T13:25:52;10.55;;;2.45;;
34767;SDS011;21755;43.608;1.236;2023-05-07T13:28:22;5.40;;;2.10;;
34767;SDS011;21755;43.608;1.236;2023-05-07T13:30:48;6.25;;;1.92;;
34767;SDS011;21755;43.608;1.236;2023-05-07T13:33:16;9.18;;;2.47;;
34767;SDS011;21755;43.608;1.236;2023-05-07T13:35:42;5.32;;;2.05;;
34767;SDS011;21755;43.608;1.236;2023-05-07T13:38:09;5.05;;;1.95;;
34767;SDS011;21755;43.608;1.236;2023-05-07T13:40:35;6.75;;;2.08;;
34767;SDS011;21755;43.608;1.236;2023-05-07T13:43:01;7.97;;;2.10;;
34767;SDS011;21755;43.608;1.236;2023-05-07T13:45:27;9.63;;;2.10;;
34767;SDS011;21755;43.608;1.236;2023-05-07T13:47:57;5.35;;;1.80;;
34767;SDS011;21755;43.608;1.236;2023-05-07T13:50:23;11.95;;;2.45;;
34767;SDS011;21755;43.608;1.236;2023-05-07T13:52:49;4.45;;;1.95;;
34767;SDS011;21755;43.608;1.236;2023-05-07T13:55:18;8.45;;;2.28;;
34767;SDS011;21755;43.608;1.236;2023-05-07T13:57:44;7.43;;;2.40;;
34767;SDS011;21755;43.608;1.236;2023-05-07T14:00:11;8.27;;;2.03;;
34767;SDS011;21755;43.608;1.236;2023-05-07T14:02:37;6.78;;;1.90;;
34767;SDS011;21755;43.608;1.236;2023-05-07T14:05:04;8.07;;;2.20;;
34767;SDS011;21755;43.608;1.236;2023-05-07T14:07:30;9.25;;;2.50;;
34767;SDS011;21755;43.608;1.236;2023-05-07T14:09:56;9.60;;;1.75;;
34767;SDS011;21755;43.608;1.236;2023-05-07T14:12:22;6.45;;;1.98;;
34767;SDS011;21755;43.608;1.236;2023-05-07T14:14:48;4.90;;;1.98;;
34767;SDS011;21755;43.608;1.236;2023-05-07T14:17:18;10.88;;;2.60;;
34767;SDS011;21755;43.608;1.236;2023-05-07T14:19:44;11.95;;;2.13;;
34767;SDS011;21755;43.608;1.236;2023-05-07T14:22:10;14.73;;;2.25;;
34767;SDS011;21755;43.608;1.236;2023-05-07T14:24:35;7.85;;;2.63;;
34767;SDS011;21755;43.608;1.236;2023-05-07T14:27:01;7.65;;;1.70;;
34767;SDS011;21755;43.608;1.236;2023-05-07T14:29:27;3.88;;;1.30;;
34767;SDS011;21755;43.608;1.236;2023-05-07T14:31:53;4.50;;;1.48;;
34767;SDS011;21755;43.608;1.236;2023-05-07T14:34:19;7.43;;;1.60;;
34767;SDS011;21755;43.608;1.236;2023-05-07T14:36:45;5.68;;;1.67;;
34767;SDS011;21755;43.608;1.236;2023-05-07T14:39:11;7.93;;;1.83;;
34767;SDS011;21755;43.608;1.236;2023-05-07T14:41:37;6.07;;;2.00;;
34767;SDS011;21755;43.608;1.236;2023-05-07T14:44:03;8.23;;;1.75;;
34767;SDS011;21755;43.608;1.236;2023-05-07T14:46:29;5.55;;;2.05;;
34767;SDS011;21755;43.608;1.236;2023-05-07T14:48:56;8.75;;;2.30;;
34767;SDS011;21755;43.608;1.236;2023-05-07T14:51:22;6.40;;;1.98;;
34767;SDS011;21755;43.608;1.236;2023-05-07T14:53:49;5.97;;;1.73;;
34767;SDS011;21755;43.608;1.236;2023-05-07T14:56:16;6.57;;;1.85;;
34767;SDS011;21755;43.608;1.236;2023-05-07T14:58:42;5.72;;;2.08;;
34767;SDS011;21755;43.608;1.236;2023-05-07T15:01:09;11.63;;;2.42;;
34767;SDS011;21755;43.608;1.236;2023-05-07T15:03:34;7.68;;;2.38;;
34767;SDS011;21755;43.608;1.236;2023-05-07T15:06:01;5.07;;;1.88;;